Time;durP1;ratioP1;P1;durP2;ratioP2;P2;SDS_P1;SDS_P2;PMS_P1;PMS_P2;Temp;Humidity;BMP_temperature;BMP_pressure;BME280_temperature;BME280_humidity;BME280_pressure;Samples;Min_cycle;Max_cycle;Signal;HPM_P1;HPM_P2
2022/06/21 00:01:16;;;;;;;16.03;5.37;;;;;;;;;;5041227;28;20694;-42
2022/06/21 00:03:43;;;;;;;11.10;5.27;;;;;;;;;;5051521;28;20899;-42
2022/06/21 00:06:11;;;;;;;12.53;5.10;;;;;;;;;;5049531;28;20182;-42
2022/06/21 00:08:37;;;;;;;9.53;4.90;;;;;;;;;;5043444;28;20179;-42
2022/06/21 00:11:04;;;;;;;17.60;5.47;;;;;;;;;;5051243;28;20938;-42
2022/06/21 00:13:31;;;;;;;10.03;4.73;;;;;;;;;;5049907;28;20297;-42
2022/06/21 00:15:59;;;;;;;11.57;4.87;;;;;;;;;;5048028;28;20281;-42
2022/06/21 00:18:26;;;;;;;8.30;4.50;;;;;;;;;;5049251;28;20174;-43
2022/06/21 00:20:53;;;;;;;11.73;4.23;;;;;;;;;;5050327;28;20183;-42
2022/06/21 00:23:24;;;;;;;8.23;4.37;;;;;;;;;;5047329;28;20195;-42
2022/06/21 00:25:50;;;;;;;13.27;4.13;;;;;;;;;;5051982;28;21009;-42
2022/06/21 00:28:17;;;;;;;8.90;3.70;;;;;;;;;;5058482;28;21048;-42
2022/06/21 00:30:44;;;;;;;10.53;3.67;;;;;;;;;;5058550;28;20189;-42
2022/06/21 00:33:14;;;;;;;6.13;3.77;;;;;;;;;;5054016;28;21125;-40
2022/06/21 00:35:45;;;;;;;11.20;3.90;;;;;;;;;;5059507;28;20211;-42
2022/06/21 00:38:13;;;;;;;8.30;4.17;;;;;;;;;;5060650;28;20805;-41
2022/06/21 00:40:39;;;;;;;9.03;3.60;;;;;;;;;;5056917;28;20179;-42
2022/06/21 00:43:09;;;;;;;9.60;3.97;;;;;;;;;;5055764;28;20240;-42
2022/06/21 00:45:35;;;;;;;7.40;3.77;;;;;;;;;;5054439;28;20185;-42
2022/06/21 00:48:06;;;;;;;7.17;3.03;;;;;;;;;;5052505;28;20178;-41
2022/06/21 00:50:38;;;;;;;7.00;3.27;;;;;;;;;;5055337;28;21391;-41
2022/06/21 00:53:04;;;;;;;9.40;3.70;;;;;;;;;;5057335;28;20194;-42
2022/06/21 00:55:36;;;;;;;8.33;3.77;;;;;;;;;;5055271;28;20171;-40
2022/06/21 00:58:02;;;;;;;6.97;3.77;;;;;;;;;;5053200;28;20177;-42
2022/06/21 01:00:37;;;;;;;9.73;3.83;;;;;;;;;;5054082;28;20184;-42
2022/06/21 01:03:06;;;;;;;6.37;3.30;;;;;;;;;;5058026;28;20179;-42
2022/06/21 01:05:36;;;;;;;5.07;3.10;;;;;;;;;;5054018;28;20178;-41
2022/06/21 01:08:03;;;;;;;5.07;3.60;;;;;;;;;;5051213;28;20174;-41
2022/06/21 01:10:29;;;;;;;8.60;3.70;;;;;;;;;;5055552;28;21009;-42
2022/06/21 01:13:00;;;;;;;4.90;3.20;;;;;;;;;;5056677;28;20195;-42
2022/06/21 01:15:32;;;;;;;8.43;3.80;;;;;;;;;;5060928;28;20218;-42
2022/06/21 01:18:00;;;;;;;6.23;3.37;;;;;;;;;;5057848;28;20234;-42
2022/06/21 01:20:27;;;;;;;5.97;3.37;;;;;;;;;;5056485;28;20171;-42
2022/06/21 01:23:05;;;;;;;5.43;3.10;;;;;;;;;;5057187;28;20188;-42
2022/06/21 01:25:32;;;;;;;6.47;3.20;;;;;;;;;;5053725;28;20174;-41
2022/06/21 01:27:58;;;;;;;5.80;3.63;;;;;;;;;;5055634;28;20237;-42
2022/06/21 01:30:24;;;;;;;7.37;3.33;;;;;;;;;;5059685;28;20171;-42
2022/06/21 01:32:51;;;;;;;6.57;3.53;;;;;;;;;;5052508;28;20276;-42
2022/06/21 01:35:23;;;;;;;7.73;3.23;;;;;;;;;;5060567;28;20557;-43
2022/06/21 01:37:49;;;;;;;9.67;3.40;;;;;;;;;;5061997;28;20174;-42
2022/06/21 01:40:25;;;;;;;9.10;3.60;;;;;;;;;;5060742;28;20555;-41
2022/06/21 01:42:54;;;;;;;9.97;3.60;;;;;;;;;;5056073;28;20185;-42
2022/06/21 01:45:28;;;;;;;7.40;3.63;;;;;;;;;;5062748;28;20993;-42
2022/06/21 01:47:59;;;;;;;7.77;3.80;;;;;;;;;;5055522;28;20193;-42
2022/06/21 01:50:25;;;;;;;6.77;3.83;;;;;;;;;;5056189;28;20179;-42
2022/06/21 01:52:52;;;;;;;6.93;3.50;;;;;;;;;;5059876;28;20303;-41
2022/06/21 01:55:23;;;;;;;7.17;4.00;;;;;;;;;;5062107;28;20971;-42
2022/06/21 01:57:50;;;;;;;7.50;4.07;;;;;;;;;;5064464;28;21146;-41
2022/06/21 02:00:16;;;;;;;8.67;4.27;;;;;;;;;;5067770;28;20178;-42
2022/06/21 02:02:44;;;;;;;10.50;4.17;;;;;;;;;;5059869;28;20193;-43
2022/06/21 02:05:13;;;;;;;8.97;4.23;;;;;;;;;;5063857;28;20170;-42
2022/06/21 02:07:43;;;;;;;7.13;4.33;;;;;;;;;;5062223;28;21014;-42
2022/06/21 02:10:14;;;;;;;9.80;4.40;;;;;;;;;;5059286;28;20174;-42
2022/06/21 02:12:43;;;;;;;10.73;4.63;;;;;;;;;;5062884;28;20599;-43
2022/06/21 02:15:18;;;;;;;10.30;4.83;;;;;;;;;;5056364;28;21177;-43
2022/06/21 02:17:45;;;;;;;8.30;4.70;;;;;;;;;;5060912;28;20361;-40
2022/06/21 02:20:19;;;;;;;9.93;4.80;;;;;;;;;;5058152;28;20884;-42
2022/06/21 02:22:45;;;;;;;9.83;4.10;;;;;;;;;;5062299;28;20186;-43
2022/06/21 02:25:15;;;;;;;14.27;5.47;;;;;;;;;;5059632;28;20175;-42
2022/06/21 02:27:42;;;;;;;13.90;5.40;;;;;;;;;;5061284;28;20183;-43
2022/06/21 02:30:13;;;;;;;10.67;5.30;;;;;;;;;;5059228;28;20191;-42
2022/06/21 02:32:41;;;;;;;9.87;4.90;;;;;;;;;;5075378;27;20185;-42
2022/06/21 02:35:13;;;;;;;11.57;5.10;;;;;;;;;;5064775;28;20898;-42
2022/06/21 02:37:39;;;;;;;10.47;4.90;;;;;;;;;;5059878;28;20171;-42
2022/06/21 02:40:06;;;;;;;11.50;5.30;;;;;;;;;;5059940;28;20184;-42
2022/06/21 02:42:34;;;;;;;8.03;4.63;;;;;;;;;;5059504;28;20224;-43
2022/06/21 02:45:08;;;;;;;8.87;4.67;;;;;;;;;;5060594;28;20207;-42
2022/06/21 02:47:43;;;;;;;12.80;5.13;;;;;;;;;;5054646;28;20340;-42
2022/06/21 02:50:45;;;;;;;8.67;4.80;;;;;;;;;;5061416;28;20270;-42
2022/06/21 02:53:30;;;;;;;10.57;5.70;;;;;;;;;;5005905;28;20204;-42
2022/06/21 02:56:08;;;;;;;11.67;4.50;;;;;;;;;;5057194;28;21132;-41
2022/06/21 02:58:39;;;;;;;10.07;4.83;;;;;;;;;;5063971;28;20182;-42
2022/06/21 03:01:12;;;;;;;10.63;4.70;;;;;;;;;;5062831;28;20180;-42
2022/06/21 03:03:38;;;;;;;13.07;5.27;;;;;;;;;;5061497;28;20255;-42
2022/06/21 03:06:06;;;;;;;10.77;4.80;;;;;;;;;;5062799;28;20183;-41
2022/06/21 03:08:33;;;;;;;12.87;5.47;;;;;;;;;;5062743;28;20211;-43
2022/06/21 03:11:00;;;;;;;12.27;5.30;;;;;;;;;;5059894;28;20183;-43
2022/06/21 03:13:28;;;;;;;8.63;5.27;;;;;;;;;;5060497;28;20209;-43
2022/06/21 03:15:59;;;;;;;9.27;5.47;;;;;;;;;;5062305;28;20865;-42
2022/06/21 03:18:27;;;;;;;12.97;5.27;;;;;;;;;;5055390;28;20189;-42
2022/06/21 03:20:54;;;;;;;11.43;4.97;;;;;;;;;;5062795;28;20281;-42
2022/06/21 03:23:21;;;;;;;9.63;5.13;;;;;;;;;;5059410;28;20183;-42
2022/06/21 03:25:50;;;;;;;9.63;5.37;;;;;;;;;;5061864;28;21057;-42
2022/06/21 03:28:21;;;;;;;9.33;6.00;;;;;;;;;;5062606;28;21330;-42
2022/06/21 03:30:48;;;;;;;10.10;6.00;;;;;;;;;;5059414;28;21095;-41
2022/06/21 03:33:14;;;;;;;13.73;6.17;;;;;;;;;;5058022;28;20769;-43
2022/06/21 03:35:40;;;;;;;10.20;5.53;;;;;;;;;;5062263;28;20174;-41
2022/06/21 03:38:06;;;;;;;14.20;6.03;;;;;;;;;;5063709;28;20185;-42
2022/06/21 03:43:22;;;;;;;9.97;5.37;;;;;;;;;;5060519;28;20294;-42
2022/06/21 03:45:49;;;;;;;10.83;5.07;;;;;;;;;;5055250;28;21187;-43
2022/06/21 03:48:21;;;;;;;12.20;6.30;;;;;;;;;;5056193;28;20170;-42
2022/06/21 03:50:54;;;;;;;9.87;5.37;;;;;;;;;;5062871;28;20174;-41
2022/06/21 03:53:27;;;;;;;12.00;5.73;;;;;;;;;;5061970;28;20200;-43
2022/06/21 03:56:01;;;;;;;9.20;5.40;;;;;;;;;;5065603;28;20244;-43
2022/06/21 03:58:38;;;;;;;13.70;6.00;;;;;;;;;;5060647;28;20171;-42
2022/06/21 04:01:13;;;;;;;14.10;5.93;;;;;;;;;;5058830;28;21018;-42
2022/06/21 04:03:59;;;;;;;11.10;5.50;;;;;;;;;;5061679;28;20205;-42
2022/06/21 04:06:28;;;;;;;12.10;5.43;;;;;;;;;;5063760;28;20287;-41
2022/06/21 04:09:06;;;;;;;11.70;5.43;;;;;;;;;;5058171;28;20256;-42
2022/06/21 04:11:39;;;;;;;12.13;5.70;;;;;;;;;;5066215;28;20214;-43
2022/06/21 04:14:05;;;;;;;11.63;5.90;;;;;;;;;;5058896;28;20209;-42
2022/06/21 04:16:37;;;;;;;11.00;5.30;;;;;;;;;;5055350;28;20183;-42
2022/06/21 04:19:03;;;;;;;16.57;6.00;;;;;;;;;;5058519;28;20281;-41
2022/06/21 04:21:38;;;;;;;12.00;5.70;;;;;;;;;;5064543;28;20258;-42
2022/06/21 04:24:04;;;;;;;11.37;5.77;;;;;;;;;;5059384;28;20179;-41
2022/06/21 04:26:34;;;;;;;15.77;6.17;;;;;;;;;;5058200;28;20178;-41
2022/06/21 04:29:00;;;;;;;22.67;6.20;;;;;;;;;;5057156;28;20258;-41
2022/06/21 04:31:26;;;;;;;12.40;5.17;;;;;;;;;;5057647;28;20271;-41
2022/06/21 04:34:00;;;;;;;13.50;5.97;;;;;;;;;;5053942;28;21096;-41
2022/06/21 04:36:30;;;;;;;9.17;5.03;;;;;;;;;;5059288;28;20178;-42
2022/06/21 04:39:07;;;;;;;10.67;5.10;;;;;;;;;;5058255;28;20174;-41
2022/06/21 04:41:43;;;;;;;11.03;5.33;;;;;;;;;;5058121;28;20175;-42
2022/06/21 04:44:12;;;;;;;8.57;4.73;;;;;;;;;;5058109;28;20218;-42
2022/06/21 04:47:05;;;;;;;13.83;5.40;;;;;;;;;;5055282;28;20441;-41
2022/06/21 04:49:43;;;;;;;17.13;5.80;;;;;;;;;;5050995;28;20186;-39
2022/06/21 04:52:17;;;;;;;10.50;4.83;;;;;;;;;;5057143;28;20943;-41
2022/06/21 04:54:43;;;;;;;9.57;4.80;;;;;;;;;;5062753;28;20209;-42
2022/06/21 04:57:14;;;;;;;14.17;4.70;;;;;;;;;;5063737;28;20182;-41
2022/06/21 04:59:47;;;;;;;11.57;5.13;;;;;;;;;;5054160;28;20358;-42
2022/06/21 05:02:18;;;;;;;7.93;4.77;;;;;;;;;;5060497;28;20554;-42
2022/06/21 05:04:45;;;;;;;11.77;4.63;;;;;;;;;;5056861;28;20181;-41
2022/06/21 05:07:17;;;;;;;9.50;4.40;;;;;;;;;;5052893;28;20368;-41
2022/06/21 05:09:44;;;;;;;11.93;4.80;;;;;;;;;;5047231;28;20202;-42
2022/06/21 05:12:12;;;;;;;12.43;4.80;;;;;;;;;;5057018;28;21683;-41
2022/06/21 05:14:42;;;;;;;11.07;4.73;;;;;;;;;;5057970;28;20210;-41
2022/06/21 05:17:11;;;;;;;10.70;4.30;;;;;;;;;;5052760;28;20202;-41
2022/06/21 05:19:40;;;;;;;8.90;4.10;;;;;;;;;;5044236;28;20359;-42
2022/06/21 05:22:27;;;;;;;9.03;4.33;;;;;;;;;;5052137;28;20539;-42
2022/06/21 05:24:54;;;;;;;8.47;4.70;;;;;;;;;;5053883;28;20276;-42
2022/06/21 05:27:33;;;;;;;11.93;5.10;;;;;;;;;;5049783;28;20183;-41
2022/06/21 05:30:06;;;;;;;11.00;4.30;;;;;;;;;;5052061;28;20615;-42
2022/06/21 05:32:38;;;;;;;10.90;4.67;;;;;;;;;;5050353;28;20174;-41
2022/06/21 05:35:14;;;;;;;10.40;4.60;;;;;;;;;;5056551;28;20337;-41
2022/06/21 05:38:00;;;;;;;11.50;5.03;;;;;;;;;;5065006;28;20875;-42
2022/06/21 05:40:45;;;;;;;7.97;4.20;;;;;;;;;;5063808;28;20637;-41
2022/06/21 05:43:14;;;;;;;10.07;4.37;;;;;;;;;;5055642;28;20179;-42
2022/06/21 05:45:42;;;;;;;12.53;4.23;;;;;;;;;;5049428;28;20187;-42
2022/06/21 05:48:12;;;;;;;13.00;4.07;;;;;;;;;;5049746;28;20183;-40
2022/06/21 05:50:39;;;;;;;12.00;4.43;;;;;;;;;;5050773;28;20225;-41
2022/06/21 05:53:10;;;;;;;8.27;4.10;;;;;;;;;;5057574;28;20181;-42
2022/06/21 05:55:37;;;;;;;11.47;4.37;;;;;;;;;;5053739;28;20983;-42
2022/06/21 05:58:08;;;;;;;12.83;4.40;;;;;;;;;;5052595;28;20171;-42
2022/06/21 06:00:50;;;;;;;19.07;4.07;;;;;;;;;;5056009;28;20294;-42
2022/06/21 06:03:25;;;;;;;10.33;4.13;;;;;;;;;;5051638;28;20565;-42
2022/06/21 06:05:53;;;;;;;10.60;4.30;;;;;;;;;;5053236;28;20656;-42
2022/06/21 06:08:22;;;;;;;8.67;4.33;;;;;;;;;;5055320;28;20865;-42
2022/06/21 06:10:49;;;;;;;13.70;4.57;;;;;;;;;;5051994;28;20170;-42
2022/06/21 06:13:19;;;;;;;12.17;4.20;;;;;;;;;;5056482;28;20220;-41
2022/06/21 06:15:53;;;;;;;11.20;4.10;;;;;;;;;;5058588;28;20943;-41
2022/06/21 06:18:26;;;;;;;11.60;4.47;;;;;;;;;;5059057;28;20194;-42
2022/06/21 06:20:59;;;;;;;12.03;4.10;;;;;;;;;;5055233;28;20175;-41
2022/06/21 06:23:42;;;;;;;9.83;4.13;;;;;;;;;;5056193;28;20294;-42
2022/06/21 06:26:16;;;;;;;12.57;3.77;;;;;;;;;;5056971;28;20175;-42
2022/06/21 06:28:45;;;;;;;11.33;3.90;;;;;;;;;;5057322;28;20167;-42
2022/06/21 06:31:17;;;;;;;8.33;3.73;;;;;;;;;;5055231;28;21003;-42
2022/06/21 06:33:47;;;;;;;12.67;4.10;;;;;;;;;;5055653;28;20203;-42
2022/06/21 06:36:20;;;;;;;11.30;3.80;;;;;;;;;;5056417;28;20213;-42
2022/06/21 06:38:46;;;;;;;12.80;3.37;;;;;;;;;;5054886;28;20172;-42
2022/06/21 06:41:17;;;;;;;9.00;3.53;;;;;;;;;;5050807;28;20189;-41
2022/06/21 06:43:49;;;;;;;9.20;3.50;;;;;;;;;;5059750;28;20179;-43
2022/06/21 06:46:24;;;;;;;7.87;3.37;;;;;;;;;;5057332;28;20170;-42
2022/06/21 06:48:50;;;;;;;7.70;3.37;;;;;;;;;;5055223;28;20182;-41
2022/06/21 06:51:16;;;;;;;7.57;3.40;;;;;;;;;;5049617;28;20179;-41
2022/06/21 06:53:47;;;;;;;8.87;3.50;;;;;;;;;;5056696;28;20209;-42
2022/06/21 06:56:16;;;;;;;8.70;3.90;;;;;;;;;;5056013;28;20190;-40
2022/06/21 06:58:42;;;;;;;7.60;3.70;;;;;;;;;;5059704;28;20179;-41
2022/06/21 07:01:18;;;;;;;4.30;3.40;;;;;;;;;;5057069;28;21006;-42
2022/06/21 07:03:52;;;;;;;8.43;3.60;;;;;;;;;;5063317;28;20386;-42
2022/06/21 07:06:20;;;;;;;9.87;3.30;;;;;;;;;;5062196;28;20298;-42
2022/06/21 07:08:49;;;;;;;9.03;3.53;;;;;;;;;;5053284;28;20286;-41
2022/06/21 07:11:23;;;;;;;7.67;3.60;;;;;;;;;;5056662;28;20946;-42
2022/06/21 07:13:50;;;;;;;11.83;3.63;;;;;;;;;;5059017;28;20937;-42
2022/06/21 07:16:20;;;;;;;8.07;3.77;;;;;;;;;;5050508;28;20987;-42
2022/06/21 07:18:50;;;;;;;6.93;3.37;;;;;;;;;;5054766;28;20178;-42
2022/06/21 07:21:18;;;;;;;5.57;3.27;;;;;;;;;;5058477;28;20171;-42
2022/06/21 07:23:44;;;;;;;8.20;3.53;;;;;;;;;;5059083;28;20175;-42
2022/06/21 07:26:27;;;;;;;3.97;3.07;;;;;;;;;;5056547;28;20272;-42
2022/06/21 07:28:56;;;;;;;6.20;3.33;;;;;;;;;;5050953;28;20930;-41
2022/06/21 07:31:25;;;;;;;6.60;3.47;;;;;;;;;;5051356;28;20183;-42
2022/06/21 07:34:06;;;;;;;5.43;2.87;;;;;;;;;;5054327;28;20206;-42
2022/06/21 07:36:56;;;;;;;4.93;3.33;;;;;;;;;;5053061;28;20171;-42
2022/06/21 07:39:34;;;;;;;4.57;3.27;;;;;;;;;;5049301;28;20177;-42
2022/06/21 07:42:14;;;;;;;7.73;3.23;;;;;;;;;;5054334;28;20230;-40
2022/06/21 07:44:46;;;;;;;5.37;3.40;;;;;;;;;;5053607;28;20190;-41
2022/06/21 07:47:21;;;;;;;8.47;3.23;;;;;;;;;;5051933;28;20179;-41
2022/06/21 07:49:53;;;;;;;5.50;3.60;;;;;;;;;;5071004;27;20178;-41
2022/06/21 07:52:29;;;;;;;6.37;3.43;;;;;;;;;;5054106;28;20222;-41
2022/06/21 07:55:03;;;;;;;3.93;3.10;;;;;;;;;;5052085;28;20202;-42
2022/06/21 07:57:33;;;;;;;10.20;4.00;;;;;;;;;;5053595;28;20169;-42
2022/06/21 08:00:01;;;;;;;10.80;4.33;;;;;;;;;;5053489;28;20623;-42
2022/06/21 08:08:02;;;;;;;9.07;3.53;;;;;;;;;;5056304;28;20194;-41
2022/06/21 08:10:47;;;;;;;9.13;3.70;;;;;;;;;;5053276;28;20182;-42
2022/06/21 08:13:13;;;;;;;10.17;3.93;;;;;;;;;;5052410;28;20199;-42
2022/06/21 08:15:43;;;;;;;8.83;3.40;;;;;;;;;;5051739;28;20253;-42
2022/06/21 08:18:21;;;;;;;6.40;3.97;;;;;;;;;;5053981;28;21085;-42
2022/06/21 08:20:50;;;;;;;9.53;3.80;;;;;;;;;;5055614;28;20179;-42
2022/06/21 08:23:36;;;;;;;7.83;3.87;;;;;;;;;;5057074;28;20186;-41
2022/06/21 08:26:10;;;;;;;7.57;4.00;;;;;;;;;;5051990;28;20210;-40
2022/06/21 08:28:53;;;;;;;9.17;3.70;;;;;;;;;;5050629;28;20877;-42
2022/06/21 08:31:28;;;;;;;8.87;3.83;;;;;;;;;;5056510;28;20167;-42
2022/06/21 08:33:58;;;;;;;5.70;3.20;;;;;;;;;;5051201;28;20275;-42
2022/06/21 08:36:32;;;;;;;12.07;4.27;;;;;;;;;;5053882;28;20257;-42
2022/06/21 08:39:10;;;;;;;7.77;3.47;;;;;;;;;;5056417;28;20175;-41
2022/06/21 08:41:56;;;;;;;11.63;3.60;;;;;;;;;;5055097;28;20170;-42
2022/06/21 08:44:41;;;;;;;8.93;3.90;;;;;;;;;;5051234;28;20175;-42
2022/06/21 08:47:13;;;;;;;4.83;3.40;;;;;;;;;;5051115;28;21056;-42
2022/06/21 08:50:12;;;;;;;9.70;4.23;;;;;;;;;;5044638;28;20910;-41
2022/06/21 08:52:42;;;;;;;6.53;3.57;;;;;;;;;;5020634;28;20240;-42
2022/06/21 08:55:09;;;;;;;8.97;3.83;;;;;;;;;;5050839;28;20793;-42
2022/06/21 08:57:56;;;;;;;8.07;3.87;;;;;;;;;;5047935;28;20191;-41
2022/06/21 09:00:35;;;;;;;7.80;3.63;;;;;;;;;;5052736;28;20224;-41
2022/06/21 09:03:12;;;;;;;5.87;3.50;;;;;;;;;;5053181;28;20183;-41
2022/06/21 09:05:47;;;;;;;8.50;3.43;;;;;;;;;;5049464;28;20181;-42
2022/06/21 09:08:32;;;;;;;9.07;4.07;;;;;;;;;;5050161;28;21025;-42
2022/06/21 09:11:16;;;;;;;6.83;3.63;;;;;;;;;;5050198;28;20189;-42
2022/06/21 09:13:45;;;;;;;6.70;3.57;;;;;;;;;;5049834;28;20268;-41
2022/06/21 09:16:23;;;;;;;5.87;3.07;;;;;;;;;;5012175;28;1158451;-41
2022/06/21 09:18:59;;;;;;;9.43;3.70;;;;;;;;;;5051354;28;21060;-41
2022/06/21 09:21:39;;;;;;;5.70;3.27;;;;;;;;;;5053192;28;20172;-43
2022/06/21 09:24:09;;;;;;;6.50;3.37;;;;;;;;;;5053960;28;20926;-42
2022/06/21 09:26:44;;;;;;;5.47;3.40;;;;;;;;;;5049838;28;20186;-43
2022/06/21 09:29:19;;;;;;;6.33;3.53;;;;;;;;;;5053198;28;20201;-42
2022/06/21 09:31:53;;;;;;;5.93;3.40;;;;;;;;;;5049556;28;20246;-43
2022/06/21 09:34:25;;;;;;;7.83;3.67;;;;;;;;;;5049727;28;20312;-42
2022/06/21 09:36:58;;;;;;;6.63;3.57;;;;;;;;;;5051760;28;20181;-43
2022/06/21 09:39:32;;;;;;;6.77;3.50;;;;;;;;;;5053824;28;20244;-42
2022/06/21 09:42:01;;;;;;;9.63;3.53;;;;;;;;;;5050648;28;20180;-42
2022/06/21 09:44:46;;;;;;;10.10;4.00;;;;;;;;;;5051525;28;20181;-42
2022/06/21 09:47:12;;;;;;;7.47;3.30;;;;;;;;;;5056160;28;20185;-43
2022/06/21 09:49:41;;;;;;;6.57;3.30;;;;;;;;;;5056244;28;20301;-42
2022/06/21 09:52:08;;;;;;;6.70;3.40;;;;;;;;;;5056174;28;21501;-42
2022/06/21 09:54:44;;;;;;;9.70;3.33;;;;;;;;;;5056021;28;20214;-42
2022/06/21 09:57:16;;;;;;;5.83;3.63;;;;;;;;;;5054325;28;20175;-42
2022/06/21 09:59:46;;;;;;;12.03;3.57;;;;;;;;;;5052376;28;20182;-43
2022/06/21 10:02:26;;;;;;;7.70;3.50;;;;;;;;;;5052258;28;20970;-43
2022/06/21 10:05:12;;;;;;;8.13;4.10;;;;;;;;;;5052526;28;20211;-43
2022/06/21 10:07:47;;;;;;;4.77;3.37;;;;;;;;;;5051862;28;20172;-41
2022/06/21 10:10:17;;;;;;;9.57;3.60;;;;;;;;;;5051267;28;20182;-42
2022/06/21 10:12:43;;;;;;;7.87;3.53;;;;;;;;;;5051413;28;20195;-41
2022/06/21 10:15:18;;;;;;;10.63;3.33;;;;;;;;;;5056346;28;20211;-41
2022/06/21 10:17:44;;;;;;;9.00;3.50;;;;;;;;;;5058488;28;20172;-42
2022/06/21 10:20:30;;;;;;;7.00;3.77;;;;;;;;;;5052463;28;20175;-42
2022/06/21 10:23:25;;;;;;;9.10;3.83;;;;;;;;;;5052263;28;20179;-40
2022/06/21 10:26:02;;;;;;;6.83;3.40;;;;;;;;;;5026027;28;20251;-40
2022/06/21 10:28:43;;;;;;;7.03;3.67;;;;;;;;;;5057147;28;20167;-41
2022/06/21 10:31:12;;;;;;;9.73;4.07;;;;;;;;;;5054510;28;21095;-42
2022/06/21 10:33:57;;;;;;;9.57;3.70;;;;;;;;;;5056039;28;20256;-42
2022/06/21 10:36:29;;;;;;;10.10;3.70;;;;;;;;;;5057309;28;21330;-41
2022/06/21 10:38:55;;;;;;;5.77;3.40;;;;;;;;;;5055936;28;20183;-42
2022/06/21 10:42:46;;;;;;;6.63;3.53;;;;;;;;;;5054207;28;20283;-42
2022/06/21 10:44:51;;;;;;;9.23;3.70;;;;;;;;;;5060385;28;20191;-42
2022/06/21 10:47:24;;;;;;;8.97;3.93;;;;;;;;;;5039384;28;20190;-41
2022/06/21 10:50:09;;;;;;;7.80;3.70;;;;;;;;;;5055071;28;20179;-41
2022/06/21 10:52:53;;;;;;;11.27;3.97;;;;;;;;;;5058706;28;20842;-42
2022/06/21 10:55:25;;;;;;;7.87;3.90;;;;;;;;;;5053093;28;20225;-42
2022/06/21 10:57:59;;;;;;;8.60;3.77;;;;;;;;;;5056177;28;20179;-42
2022/06/21 11:03:32;;;;;;;6.43;3.60;;;;;;;;;;5053721;28;20950;-42
2022/06/21 11:06:13;;;;;;;7.90;3.80;;;;;;;;;;5056272;28;20887;-41
2022/06/21 11:08:43;;;;;;;7.03;4.00;;;;;;;;;;5055590;28;20182;-42
2022/06/21 11:11:09;;;;;;;8.47;3.50;;;;;;;;;;5053021;28;20179;-42
2022/06/21 11:13:37;;;;;;;8.60;3.60;;;;;;;;;;5052427;28;21037;-42
2022/06/21 11:16:26;;;;;;;7.23;3.40;;;;;;;;;;5057155;28;20624;-42
2022/06/21 11:18:55;;;;;;;7.87;4.23;;;;;;;;;;5047506;28;20922;-42
2022/06/21 11:21:30;;;;;;;7.93;3.60;;;;;;;;;;5053497;28;20675;-42
2022/06/21 11:23:56;;;;;;;6.07;3.20;;;;;;;;;;5054340;28;20186;-42
2022/06/21 11:26:30;;;;;;;7.13;3.50;;;;;;;;;;5055892;28;20273;-42
2022/06/21 11:29:08;;;;;;;9.50;3.27;;;;;;;;;;5052686;28;20995;-42
2022/06/21 11:31:43;;;;;;;6.20;3.87;;;;;;;;;;5051663;28;21013;-42
2022/06/21 11:34:12;;;;;;;8.87;3.83;;;;;;;;;;5057239;28;20209;-41
2022/06/21 11:36:38;;;;;;;6.93;3.70;;;;;;;;;;5050430;28;20211;-42
2022/06/21 11:39:24;;;;;;;9.27;3.70;;;;;;;;;;5054440;28;20175;-42
2022/06/21 11:42:09;;;;;;;10.77;3.80;;;;;;;;;;5054093;28;20190;-42
2022/06/21 11:44:54;;;;;;;10.27;4.17;;;;;;;;;;5057880;28;20321;-42
2022/06/21 11:47:40;;;;;;;11.43;3.73;;;;;;;;;;5057767;28;20989;-42
2022/06/21 11:50:27;;;;;;;8.23;3.70;;;;;;;;;;5040986;28;21117;-41
2022/06/21 11:53:11;;;;;;;7.17;3.53;;;;;;;;;;5056113;28;20182;-42
2022/06/21 11:55:44;;;;;;;8.47;3.67;;;;;;;;;;5054234;28;20260;-42
2022/06/21 11:58:19;;;;;;;8.17;3.20;;;;;;;;;;5054192;28;20186;-42
2022/06/21 12:01:18;;;;;;;11.13;3.70;;;;;;;;;;5052009;28;20168;-42
2022/06/21 12:03:44;;;;;;;10.33;3.77;;;;;;;;;;5033802;28;20183;-42
2022/06/21 12:06:14;;;;;;;7.23;3.40;;;;;;;;;;5058517;28;20973;-42
2022/06/21 12:08:44;;;;;;;7.33;3.40;;;;;;;;;;5052022;28;20193;-43
2022/06/21 12:11:15;;;;;;;11.83;4.23;;;;;;;;;;5052716;28;20251;-42
2022/06/21 12:13:53;;;;;;;10.23;3.50;;;;;;;;;;5056159;28;20376;-41
2022/06/21 12:16:38;;;;;;;8.67;3.80;;;;;;;;;;5053955;28;21214;-42
2022/06/21 12:19:07;;;;;;;5.50;3.60;;;;;;;;;;5050738;28;20167;-42
2022/06/21 12:21:36;;;;;;;6.13;3.77;;;;;;;;;;5053354;28;20266;-42
2022/06/21 12:24:06;;;;;;;9.93;3.80;;;;;;;;;;5053684;28;20630;-42
2022/06/21 12:26:34;;;;;;;8.60;4.10;;;;;;;;;;5045373;28;20183;-42
2022/06/21 12:29:00;;;;;;;9.47;4.17;;;;;;;;;;5046656;28;20294;-42
2022/06/21 12:31:29;;;;;;;13.47;4.03;;;;;;;;;;5055037;28;20178;-42
2022/06/21 12:34:00;;;;;;;7.33;4.10;;;;;;;;;;5053379;28;20301;-42
2022/06/21 12:36:38;;;;;;;10.17;4.03;;;;;;;;;;5051710;28;20173;-42
2022/06/21 12:39:08;;;;;;;7.60;3.50;;;;;;;;;;5049552;28;20183;-42
2022/06/21 12:41:52;;;;;;;12.57;4.00;;;;;;;;;;5054789;28;20250;-42
2022/06/21 12:44:37;;;;;;;9.83;3.80;;;;;;;;;;5054834;28;20278;-42
2022/06/21 12:47:22;;;;;;;8.67;4.10;;;;;;;;;;5053281;28;20203;-42
2022/06/21 12:50:06;;;;;;;7.70;3.53;;;;;;;;;;5051202;28;20203;-42
2022/06/21 12:52:39;;;;;;;9.97;3.83;;;;;;;;;;5068891;28;20173;-42
2022/06/21 12:55:17;;;;;;;8.17;3.50;;;;;;;;;;5050380;28;20308;-40
2022/06/21 12:57:49;;;;;;;11.87;3.63;;;;;;;;;;5053447;28;20175;-43
2022/06/21 13:00:16;;;;;;;9.90;3.67;;;;;;;;;;5052565;28;20254;-43
2022/06/21 13:02:52;;;;;;;7.20;3.10;;;;;;;;;;5056968;28;20172;-43
2022/06/21 13:05:21;;;;;;;8.10;3.37;;;;;;;;;;5059076;28;20184;-42
2022/06/21 13:08:07;;;;;;;13.87;3.87;;;;;;;;;;5065338;28;20196;-42
2022/06/21 13:10:51;;;;;;;13.23;3.30;;;;;;;;;;5064943;28;20179;-42
2022/06/21 13:13:27;;;;;;;9.10;3.40;;;;;;;;;;5057272;28;20290;-42
2022/06/21 13:15:53;;;;;;;15.47;3.90;;;;;;;;;;5063228;28;20186;-42
2022/06/21 13:18:30;;;;;;;9.52;3.50;;;;;;;;;;5062758;28;20252;-42
2022/06/21 13:21:02;;;;;;;9.27;3.35;;;;;;;;;;5063220;28;20267;-42
2022/06/21 13:23:48;;;;;;;9.88;3.60;;;;;;;;;;5062663;28;20209;-41
2022/06/21 13:26:34;;;;;;;7.25;3.40;;;;;;;;;;5053306;28;20175;-42
2022/06/21 13:29:06;;;;;;;9.85;3.20;;;;;;;;;;5052813;28;20175;-42
2022/06/21 13:31:50;;;;;;;7.97;3.47;;;;;;;;;;5057600;28;20175;-42
2022/06/21 13:34:25;;;;;;;9.00;3.75;;;;;;;;;;5057528;28;20202;-42
2022/06/21 13:36:52;;;;;;;9.75;3.40;;;;;;;;;;5064361;28;20181;-42
2022/06/21 13:39:41;;;;;;;7.95;3.35;;;;;;;;;;5063975;28;20182;-42
2022/06/21 13:45:14;;;;;;;9.80;3.40;;;;;;;;;;5053392;28;20191;-42
2022/06/21 13:47:40;;;;;;;8.48;3.65;;;;;;;;;;5053170;28;21543;-42
2022/06/21 13:50:18;;;;;;;7.30;2.95;;;;;;;;;;5062496;28;20192;-42
2022/06/21 13:52:57;;;;;;;5.35;2.80;;;;;;;;;;5071353;28;20174;-43
2022/06/21 13:55:28;;;;;;;11.20;3.38;;;;;;;;;;5069318;28;20320;-43
2022/06/21 13:57:54;;;;;;;8.98;3.45;;;;;;;;;;5063585;28;20171;-43
2022/06/21 14:00:25;;;;;;;13.00;4.00;;;;;;;;;;5058672;28;20167;-42
2022/06/21 14:02:57;;;;;;;11.05;4.15;;;;;;;;;;5060240;28;20174;-43
2022/06/21 14:05:26;;;;;;;10.98;3.97;;;;;;;;;;5054001;28;20174;-42
2022/06/21 14:08:05;;;;;;;8.30;3.63;;;;;;;;;;5058708;28;20667;-42
2022/06/21 14:10:43;;;;;;;11.65;4.22;;;;;;;;;;5059320;28;20931;-42
2022/06/21 14:13:21;;;;;;;12.32;3.78;;;;;;;;;;5054587;28;20327;-42
2022/06/21 14:15:50;;;;;;;12.40;4.00;;;;;;;;;;5052855;28;20943;-43
2022/06/21 14:18:19;;;;;;;11.98;3.85;;;;;;;;;;5057946;28;20171;-42
2022/06/21 14:20:58;;;;;;;12.43;4.10;;;;;;;;;;5056481;28;20220;-42
2022/06/21 14:23:30;;;;;;;7.25;3.55;;;;;;;;;;5053978;28;20171;-41
2022/06/21 14:26:18;;;;;;;13.40;4.07;;;;;;;;;;5058448;28;20184;-43
2022/06/21 14:28:50;;;;;;;9.15;3.83;;;;;;;;;;5055905;28;20174;-42
2022/06/21 14:31:16;;;;;;;10.75;3.83;;;;;;;;;;5052295;28;20562;-42
2022/06/21 14:33:49;;;;;;;11.13;3.75;;;;;;;;;;5056406;28;20654;-42
2022/06/21 14:36:21;;;;;;;12.85;3.85;;;;;;;;;;5058418;28;20189;-42
2022/06/21 14:38:54;;;;;;;12.27;4.25;;;;;;;;;;5055637;28;20170;-42
2022/06/21 14:41:30;;;;;;;8.67;3.70;;;;;;;;;;5053532;28;20183;-42
2022/06/21 14:43:59;;;;;;;11.45;3.90;;;;;;;;;;5057366;28;20192;-42
2022/06/21 14:46:25;;;;;;;8.15;3.33;;;;;;;;;;5057580;28;20290;-42
2022/06/21 14:49:10;;;;;;;12.68;3.92;;;;;;;;;;5057897;28;20221;-42
2022/06/21 14:51:53;;;;;;;11.32;3.80;;;;;;;;;;5052384;28;20283;-42
2022/06/21 14:54:23;;;;;;;8.30;3.75;;;;;;;;;;5053971;28;20194;-43
2022/06/21 14:57:08;;;;;;;13.68;4.00;;;;;;;;;;5058288;28;20175;-42
2022/06/21 14:59:38;;;;;;;10.23;3.55;;;;;;;;;;5054536;28;20171;-42
2022/06/21 15:02:19;;;;;;;7.20;3.25;;;;;;;;;;5055321;28;21041;-42
2022/06/21 15:04:50;;;;;;;7.85;3.05;;;;;;;;;;5057471;28;20182;-42
2022/06/21 15:07:34;;;;;;;9.30;3.80;;;;;;;;;;5057704;28;20204;-42
2022/06/21 15:10:04;;;;;;;7.70;3.15;;;;;;;;;;5054344;28;20189;-42
2022/06/21 15:12:37;;;;;;;11.70;3.00;;;;;;;;;;5070321;28;20183;-42
2022/06/21 15:15:10;;;;;;;11.53;3.13;;;;;;;;;;5055195;28;20932;-42
2022/06/21 15:17:45;;;;;;;10.23;3.70;;;;;;;;;;5056054;28;20249;-42
2022/06/21 15:20:13;;;;;;;9.03;3.43;;;;;;;;;;5061979;28;20208;-42
2022/06/21 15:22:42;;;;;;;10.88;3.40;;;;;;;;;;5061735;28;20231;-42
2022/06/21 15:25:08;;;;;;;10.17;3.30;;;;;;;;;;5061602;28;20311;-42
2022/06/21 15:27:36;;;;;;;8.73;3.60;;;;;;;;;;5063569;28;20210;-42